Time;durP1;ratioP1;P1;durP2;ratioP2;P2;SDS_P1;SDS_P2;PMS_P1;PMS_P2;Temp;Humidity;BMP_temperature;BMP_pressure;BME280_temperature;BME280_humidity;BME280_pressure;Samples;Min_cycle;Max_cycle;Signal;HPM_P1;HPM_P2
2024/02/18 00:00:40;;;;;;;5.37;2.27;;;12.10;18.80;;;;;;5117657;27;20637;-85
2024/02/18 00:03:07;;;;;;;5.07;2.27;;;12.10;18.30;;;;;;5117334;27;20217;-85
2024/02/18 00:05:34;;;;;;;8.97;2.67;;;12.10;18.80;;;;;;5107064;28;20171;-84
2024/02/18 00:08:00;;;;;;;5.77;2.20;;;12.20;18.30;;;;;;5096997;28;20179;-85
2024/02/18 00:10:26;;;;;;;5.43;2.50;;;12.10;17.70;;;;;;5096576;28;20178;-84
2024/02/18 00:12:52;;;;;;;6.57;2.30;;;12.10;18.90;;;;;;5095649;28;20274;-83
2024/02/18 00:15:17;;;;;;;6.40;2.30;;;12.10;17.00;;;;;;5096812;28;20208;-82
2024/02/18 00:17:43;;;;;;;7.63;2.63;;;12.00;17.30;;;;;;5096808;28;20205;-83
2024/02/18 00:20:15;;;;;;;5.93;2.37;;;12.00;17.50;;;;;;5097537;28;20198;-84
2024/02/18 00:22:41;;;;;;;7.87;2.83;;;12.00;18.50;;;;;;5096244;28;20178;-84
2024/02/18 00:25:07;;;;;;;6.27;2.47;;;12.10;18.60;;;;;;5095664;28;20181;-83
2024/02/18 00:27:34;;;;;;;4.30;2.20;;;12.10;16.90;;;;;;5096844;28;20181;-83
2024/02/18 00:29:59;;;;;;;6.60;2.20;;;12.10;14.90;;;;;;5097978;28;20207;-84
2024/02/18 00:32:25;;;;;;;6.67;2.20;;;12.20;13.60;;;;;;5098007;28;20249;-85
2024/02/18 00:34:51;;;;;;;6.13;2.33;;;12.10;14.50;;;;;;5097987;28;20690;-84
2024/02/18 00:37:19;;;;;;;8.63;2.47;;;11.90;15.20;;;;;;5099032;28;20178;-83
2024/02/18 00:39:46;;;;;;;10.30;2.40;;;12.10;17.10;;;;;;5097025;28;20166;-84
2024/02/18 00:42:12;;;;;;;5.33;2.30;;;11.90;16.70;;;;;;5115542;28;20163;-83
2024/02/18 00:44:38;;;;;;;6.83;2.37;;;11.90;16.20;;;;;;5097080;28;20328;-83
2024/02/18 00:47:04;;;;;;;8.17;2.60;;;12.00;15.90;;;;;;5095806;28;20166;-83
2024/02/18 00:49:31;;;;;;;6.13;2.47;;;11.90;15.30;;;;;;5114334;28;20197;-83
2024/02/18 00:51:57;;;;;;;5.77;2.30;;;11.90;13.80;;;;;;5096263;28;20173;-82
2024/02/18 00:54:23;;;;;;;6.53;2.97;;;11.90;14.40;;;;;;5095647;28;20179;-84
2024/02/18 00:56:50;;;;;;;7.70;3.33;;;11.80;15.30;;;;;;5095049;28;20370;-83
2024/02/18 00:59:16;;;;;;;7.87;2.80;;;11.80;15.30;;;;;;5094720;28;20268;-83
2024/02/18 01:01:42;;;;;;;9.70;2.60;;;11.90;14.00;;;;;;5096190;28;20194;-83
2024/02/18 01:04:08;;;;;;;6.67;2.30;;;11.90;13.80;;;;;;5093802;28;20596;-83
2024/02/18 01:06:34;;;;;;;9.43;3.20;;;11.90;13.80;;;;;;5095886;28;20199;-82
2024/02/18 01:09:00;;;;;;;6.87;2.50;;;11.80;13.70;;;;;;5094556;28;20225;-84
2024/02/18 01:11:26;;;;;;;6.37;2.47;;;11.90;13.20;;;;;;5114280;28;20209;-82
2024/02/18 01:13:52;;;;;;;5.10;2.20;;;11.80;12.50;;;;;;5094220;28;20550;-83
2024/02/18 01:16:18;;;;;;;7.43;2.87;;;11.80;10.50;;;;;;5094939;28;20699;-82
2024/02/18 01:18:44;;;;;;;5.30;2.57;;;11.90;11.20;;;;;;5094977;28;20214;-82
2024/02/18 01:21:11;;;;;;;6.97;2.83;;;11.70;12.20;;;;;;5096039;28;20527;-83
2024/02/18 01:23:37;;;;;;;7.90;2.80;;;11.70;13.20;;;;;;5113775;28;20751;-82
2024/02/18 01:26:03;;;;;;;7.43;2.70;;;11.80;13.80;;;;;;5095100;28;20175;-86
2024/02/18 01:28:29;;;;;;;9.60;3.10;;;11.70;12.40;;;;;;5095100;28;20171;-83
2024/02/18 01:30:55;;;;;;;8.57;2.90;;;11.80;12.10;;;;;;5095760;28;20178;-83
2024/02/18 01:33:23;;;;;;;7.50;2.57;;;11.70;11.40;;;;;;5095719;28;20540;-82
2024/02/18 01:35:49;;;;;;;7.00;2.83;;;11.70;11.70;;;;;;5094553;28;20175;-83
2024/02/18 01:38:15;;;;;;;8.57;2.30;;;11.70;10.90;;;;;;5094588;28;20207;-83
2024/02/18 01:40:41;;;;;;;6.47;2.57;;;11.60;11.80;;;;;;5112833;28;20174;-83
2024/02/18 01:43:07;;;;;;;9.77;2.90;;;11.70;12.80;;;;;;5095829;28;20171;-83
2024/02/18 01:45:32;;;;;;;7.33;2.87;;;11.60;13.30;;;;;;5094679;28;20574;-83
2024/02/18 01:47:59;;;;;;;5.67;2.60;;;11.50;13.10;;;;;;5095666;28;20190;-82
2024/02/18 01:50:24;;;;;;;6.23;2.80;;;11.50;13.60;;;;;;5095190;28;20167;-82
2024/02/18 01:52:52;;;;;;;8.90;3.30;;;11.50;13.50;;;;;;5113747;28;20654;-82
2024/02/18 01:55:20;;;;;;;6.33;2.50;;;11.50;13.50;;;;;;5094999;28;20586;-83
2024/02/18 01:57:46;;;;;;;11.07;3.00;;;11.50;13.10;;;;;;5095061;28;20293;-83
2024/02/18 02:00:15;;;;;;;7.17;2.60;;;11.50;12.90;;;;;;5094398;28;20194;-83
2024/02/18 02:02:45;;;;;;;10.70;3.10;;;11.50;14.70;;;;;;5094217;28;20320;-83
2024/02/18 02:05:15;;;;;;;7.70;2.57;;;11.50;14.90;;;;;;5094458;28;20231;-87
2024/02/18 02:07:42;;;;;;;7.63;3.13;;;11.50;15.10;;;;;;5094207;28;20209;-83
2024/02/18 02:10:11;;;;;;;5.93;2.83;;;11.40;15.20;;;;;;5094326;28;20170;-83
2024/02/18 02:12:41;;;;;;;11.57;3.03;;;11.40;14.90;;;;;;5094428;28;20186;-84
2024/02/18 02:15:11;;;;;;;8.50;2.97;;;11.50;13.60;;;;;;5094270;28;20244;-83
2024/02/18 02:17:37;;;;;;;10.67;3.43;;;11.40;13.90;;;;;;5093855;28;20320;-83
2024/02/18 02:20:05;;;;;;;6.00;2.40;;;11.50;14.00;;;;;;5093769;28;20235;-82
2024/02/18 02:22:30;;;;;;;7.40;2.83;;;11.50;13.70;;;;;;5093377;28;20190;-83
2024/02/18 02:24:57;;;;;;;8.77;2.60;;;11.50;13.30;;;;;;5093804;28;20179;-82
2024/02/18 02:27:29;;;;;;;9.83;3.30;;;11.60;10.80;;;;;;5094096;28;20203;-82
2024/02/18 02:29:55;;;;;;;7.37;2.80;;;11.50;10.30;;;;;;5093551;28;20175;-83
2024/02/18 02:32:21;;;;;;;7.17;3.00;;;11.50;10.70;;;;;;5093207;28;20651;-82
2024/02/18 02:34:46;;;;;;;7.73;3.27;;;11.40;12.50;;;;;;5093380;28;20219;-83
2024/02/18 02:37:12;;;;;;;10.37;3.03;;;11.40;13.00;;;;;;5112023;28;20192;-83
2024/02/18 02:39:37;;;;;;;9.47;3.03;;;11.40;14.00;;;;;;5093178;28;20229;-83
2024/02/18 02:42:05;;;;;;;9.50;2.73;;;11.40;13.60;;;;;;5093785;28;20604;-83
2024/02/18 02:44:30;;;;;;;9.87;3.00;;;11.40;13.50;;;;;;5092735;28;20176;-82
2024/02/18 02:46:56;;;;;;;8.50;3.03;;;11.30;13.20;;;;;;5092573;28;20178;-82
2024/02/18 02:49:21;;;;;;;10.00;3.37;;;11.30;14.90;;;;;;5092602;28;20171;-83
2024/02/18 02:51:47;;;;;;;7.80;3.20;;;11.30;16.30;;;;;;5092941;28;20627;-82
2024/02/18 02:54:13;;;;;;;7.30;3.23;;;11.30;15.60;;;;;;5092902;28;20175;-82
2024/02/18 02:56:38;;;;;;;7.37;3.17;;;11.30;16.30;;;;;;5093220;28;20609;-84
2024/02/18 02:59:04;;;;;;;8.50;3.20;;;11.30;16.50;;;;;;5094064;28;20210;-84
2024/02/18 03:01:30;;;;;;;9.63;3.27;;;11.40;16.70;;;;;;5052367;28;1174464;-83
2024/02/18 03:03:55;;;;;;;7.37;3.33;;;11.30;17.70;;;;;;5093994;28;20217;-82
2024/02/18 03:06:21;;;;;;;8.50;3.03;;;11.30;16.50;;;;;;5094189;28;20179;-83
2024/02/18 03:08:47;;;;;;;7.80;3.03;;;11.50;16.40;;;;;;5093456;28;20181;-83
2024/02/18 03:11:13;;;;;;;10.70;3.07;;;11.30;16.30;;;;;;5094347;28;20175;-83
2024/02/18 03:13:38;;;;;;;9.60;3.40;;;11.30;18.00;;;;;;5094595;28;20552;-82
2024/02/18 03:16:04;;;;;;;8.57;2.93;;;11.30;18.20;;;;;;5094047;28;20630;-82
2024/02/18 03:18:30;;;;;;;5.53;3.10;;;11.30;17.30;;;;;;5112523;28;20239;-83
2024/02/18 03:20:57;;;;;;;8.30;2.97;;;11.20;17.70;;;;;;5113097;28;20195;-83
2024/02/18 03:23:22;;;;;;;7.97;3.00;;;11.20;19.00;;;;;;5094076;28;20190;-83
2024/02/18 03:25:48;;;;;;;9.93;3.13;;;11.20;18.30;;;;;;5094241;28;20168;-82
2024/02/18 03:28:13;;;;;;;8.30;2.70;;;11.30;16.80;;;;;;5112344;28;20174;-83
2024/02/18 03:30:40;;;;;;;5.37;2.40;;;11.20;17.80;;;;;;5093670;28;20168;-83
2024/02/18 03:33:05;;;;;;;12.20;2.87;;;11.20;17.60;;;;;;5111563;28;20232;-83
2024/02/18 03:35:31;;;;;;;6.53;2.70;;;11.20;17.30;;;;;;5093827;28;20179;-82
2024/02/18 03:37:57;;;;;;;8.40;3.07;;;11.30;16.70;;;;;;5092800;28;20215;-82
2024/02/18 03:40:23;;;;;;;9.13;2.57;;;11.20;15.20;;;;;;5091563;28;20688;-82
2024/02/18 03:42:50;;;;;;;7.00;3.07;;;11.20;16.00;;;;;;5094068;28;20589;-82
2024/02/18 03:45:16;;;;;;;8.10;3.10;;;11.20;14.20;;;;;;5093680;28;20171;-87
2024/02/18 03:47:43;;;;;;;8.73;2.50;;;11.20;15.60;;;;;;5093615;28;20218;-82
2024/02/18 03:50:14;;;;;;;7.60;3.00;;;11.10;15.30;;;;;;5094179;28;20184;-83
2024/02/18 03:52:43;;;;;;;7.43;2.50;;;11.10;16.30;;;;;;5092751;28;20270;-82
2024/02/18 03:55:13;;;;;;;7.87;2.67;;;11.10;16.40;;;;;;5108433;28;20261;-83
2024/02/18 03:57:42;;;;;;;7.07;2.97;;;11.10;15.20;;;;;;5114030;28;20213;-82
2024/02/18 04:00:09;;;;;;;6.90;2.47;;;11.10;15.10;;;;;;5116604;27;20222;-82
2024/02/18 04:02:38;;;;;;;9.33;2.27;;;11.10;14.50;;;;;;5115821;27;20206;-82
2024/02/18 04:05:07;;;;;;;10.27;2.90;;;11.20;13.20;;;;;;5116610;27;20190;-82
2024/02/18 04:07:34;;;;;;;8.80;3.03;;;11.10;13.60;;;;;;5117760;27;20618;-83
2024/02/18 04:10:00;;;;;;;4.60;2.10;;;11.10;13.00;;;;;;5116506;27;20170;-82
2024/02/18 04:12:26;;;;;;;7.43;2.37;;;11.10;13.10;;;;;;5117009;27;20684;-82
2024/02/18 04:14:51;;;;;;;8.03;2.70;;;11.10;11.90;;;;;;5116946;27;20182;-84
2024/02/18 04:17:17;;;;;;;6.27;2.37;;;11.10;12.40;;;;;;5135090;27;20175;-83
2024/02/18 04:19:43;;;;;;;5.37;2.00;;;11.10;12.60;;;;;;5117850;27;20186;-83
2024/02/18 04:22:08;;;;;;;6.93;2.60;;;11.30;11.10;;;;;;5115594;27;20698;-83
2024/02/18 04:24:34;;;;;;;8.73;2.53;;;11.20;10.10;;;;;;5096096;28;20220;-82
2024/02/18 04:27:00;;;;;;;6.90;2.20;;;11.20;10.90;;;;;;5096986;28;20167;-83
2024/02/18 04:29:27;;;;;;;5.57;2.30;;;11.20;9.20;;;;;;5114034;28;20187;-83
2024/02/18 04:31:52;;;;;;;8.23;1.90;;;11.20;8.20;;;;;;5095112;28;20476;-82
2024/02/18 04:34:18;;;;;;;8.17;3.10;;;11.30;6.50;;;;;;5095908;28;20227;-81
2024/02/18 04:36:47;;;;;;;6.10;2.33;;;11.20;5.60;;;;;;5096914;28;20543;-86
2024/02/18 04:39:13;;;;;;;7.67;2.53;;;11.20;6.40;;;;;;5096159;28;20210;-82
2024/02/18 04:41:39;;;;;;;7.23;2.17;;;11.20;4.60;;;;;;5094856;28;20171;-82
2024/02/18 04:44:04;;;;;;;8.67;2.50;;;11.30;5.10;;;;;;5094720;28;20176;-83
2024/02/18 04:46:30;;;;;;;8.23;2.60;;;11.30;3.90;;;;;;5095750;28;20624;-83
2024/02/18 04:48:58;;;;;;;4.90;2.07;;;11.30;3.10;;;;;;5114821;28;20175;-82
2024/02/18 04:51:24;;;;;;;8.50;2.30;;;11.20;2.80;;;;;;5095575;28;20205;-83
2024/02/18 04:53:49;;;;;;;5.43;2.63;;;11.30;1.30;;;;;;5095248;28;20198;-82
2024/02/18 04:56:15;;;;;;;8.33;2.37;;;11.30;1.40;;;;;;5095767;28;20615;-86
2024/02/18 04:58:41;;;;;;;8.90;2.37;;;11.30;1.20;;;;;;5094379;28;20216;-83
2024/02/18 05:01:09;;;;;;;7.83;2.17;;;11.40;1.10;;;;;;5113981;28;20721;-83
2024/02/18 05:03:35;;;;;;;8.30;2.50;;;11.20;1.00;;;;;;5096419;28;20221;-83
2024/02/18 05:06:01;;;;;;;8.87;2.80;;;11.20;1.00;;;;;;5095025;28;20196;-83
2024/02/18 05:08:27;;;;;;;6.57;2.57;;;11.20;1.00;;;;;;5096009;28;20191;-83
2024/02/18 05:10:54;;;;;;;6.07;2.23;;;11.20;1.00;;;;;;5095040;28;20619;-84
2024/02/18 05:13:21;;;;;;;4.80;2.10;;;11.20;1.00;;;;;;5096342;28;20175;-83
2024/02/18 05:15:51;;;;;;;7.50;2.93;;;11.20;1.00;;;;;;5094067;28;20615;-82
2024/02/18 05:18:17;;;;;;;5.00;2.27;;;11.20;1.00;;;;;;5095903;28;20238;-82
2024/02/18 05:20:43;;;;;;;7.50;2.60;;;11.20;1.00;;;;;;5094828;28;20175;-84
2024/02/18 05:23:09;;;;;;;8.67;2.47;;;11.20;1.00;;;;;;5095954;28;20185;-83
2024/02/18 05:25:36;;;;;;;8.67;2.37;;;11.20;1.00;;;;;;5094270;28;20258;-82
2024/02/18 05:28:02;;;;;;;8.03;2.10;;;11.20;1.00;;;;;;5095214;28;20228;-81
2024/02/18 05:30:27;;;;;;;4.83;1.70;;;11.20;1.00;;;;;;5094570;28;20171;-82
2024/02/18 05:32:53;;;;;;;9.10;3.07;;;11.30;1.00;;;;;;5094624;28;20595;-83
2024/02/18 05:35:19;;;;;;;9.87;2.97;;;11.20;1.00;;;;;;5096933;27;20270;-82
2024/02/18 05:37:45;;;;;;;7.87;2.07;;;11.20;1.00;;;;;;5115363;27;20296;-81
2024/02/18 05:40:10;;;;;;;7.13;2.30;;;11.20;1.00;;;;;;5133835;27;20174;-81
2024/02/18 05:42:36;;;;;;;8.90;2.47;;;11.20;1.00;;;;;;5116548;27;20623;-81
2024/02/18 05:45:02;;;;;;;6.37;2.10;;;11.20;1.00;;;;;;5115591;27;20180;-83
2024/02/18 05:47:28;;;;;;;5.30;2.20;;;11.20;1.00;;;;;;5115367;27;20272;-83
2024/02/18 05:49:54;;;;;;;11.40;2.00;;;11.20;1.00;;;;;;5115937;27;20273;-83
2024/02/18 05:52:19;;;;;;;6.77;2.30;;;11.30;1.00;;;;;;5116087;27;20196;-84
2024/02/18 05:54:45;;;;;;;9.53;2.77;;;11.20;1.00;;;;;;5114335;27;20171;-83
2024/02/18 05:57:12;;;;;;;7.20;2.63;;;11.10;1.00;;;;;;5114261;27;20179;-82
2024/02/18 05:59:38;;;;;;;8.93;2.27;;;11.10;1.00;;;;;;5132969;27;20233;-82
2024/02/18 06:02:04;;;;;;;6.60;2.30;;;11.20;1.00;;;;;;5114091;27;20319;-82
2024/02/18 06:04:29;;;;;;;11.53;2.67;;;11.10;1.00;;;;;;5115252;27;20654;-82
2024/02/18 06:06:57;;;;;;;7.10;2.30;;;11.20;1.20;;;;;;5115136;27;20586;-82
2024/02/18 06:09:23;;;;;;;5.83;2.70;;;11.30;3.10;;;;;;5115105;27;20248;-82
2024/02/18 06:11:50;;;;;;;4.77;2.10;;;11.10;5.90;;;;;;5114601;27;20178;-82
2024/02/18 06:14:16;;;;;;;9.67;2.60;;;11.00;10.90;;;;;;5115030;27;20606;-82
2024/02/18 06:16:41;;;;;;;7.87;2.50;;;11.00;12.60;;;;;;5132472;27;20185;-82
2024/02/18 06:19:07;;;;;;;9.60;2.70;;;10.90;13.50;;;;;;5113712;27;20209;-83
2024/02/18 06:21:33;;;;;;;7.77;2.70;;;10.90;15.10;;;;;;5115206;27;20185;-84
2024/02/18 06:23:59;;;;;;;6.23;2.77;;;10.80;18.20;;;;;;5133748;27;20191;-83
2024/02/18 06:26:25;;;;;;;10.53;3.23;;;10.80;19.60;;;;;;5114400;27;20177;-82
2024/02/18 06:28:51;;;;;;;6.37;2.60;;;10.70;22.30;;;;;;5115371;27;20653;-83
2024/02/18 06:31:17;;;;;;;10.17;3.17;;;10.70;25.40;;;;;;5114499;28;20270;-87
2024/02/18 06:33:46;;;;;;;7.50;2.80;;;10.60;28.30;;;;;;5113759;27;20185;-84
2024/02/18 06:36:12;;;;;;;9.90;2.70;;;10.60;29.90;;;;;;5111378;28;20175;-84
2024/02/18 06:38:44;;;;;;;6.87;3.07;;;10.60;31.90;;;;;;5094053;28;20330;-83
2024/02/18 06:41:13;;;;;;;9.70;3.20;;;10.60;35.90;;;;;;5093892;28;20176;-83
2024/02/18 06:43:39;;;;;;;7.00;3.43;;;10.60;36.40;;;;;;5093304;28;20175;-82
2024/02/18 06:46:04;;;;;;;13.10;3.03;;;10.60;37.20;;;;;;5092789;28;20913;-83
2024/02/18 06:48:30;;;;;;;8.00;2.53;;;10.50;39.90;;;;;;5094749;28;20179;-87
2024/02/18 06:50:57;;;;;;;4.67;2.40;;;10.40;40.70;;;;;;5112520;28;20255;-82
2024/02/18 06:53:23;;;;;;;10.20;3.27;;;10.30;41.40;;;;;;5112011;28;20174;-82
2024/02/18 06:55:49;;;;;;;8.37;3.20;;;10.40;43.30;;;;;;5094372;28;20179;-85
2024/02/18 06:58:17;;;;;;;6.77;2.60;;;10.40;42.80;;;;;;5111892;28;20667;-83
2024/02/18 07:00:43;;;;;;;7.83;2.83;;;10.50;42.90;;;;;;5093601;28;20199;-82
2024/02/18 07:03:10;;;;;;;7.50;2.80;;;10.30;45.30;;;;;;5094456;28;20194;-86
2024/02/18 07:05:36;;;;;;;8.80;2.90;;;10.30;47.60;;;;;;5094310;28;20177;-84
2024/02/18 07:08:04;;;;;;;5.50;2.83;;;10.30;46.10;;;;;;5093436;28;20183;-82
2024/02/18 07:10:29;;;;;;;6.47;3.20;;;10.30;46.40;;;;;;5093819;28;20267;-81
2024/02/18 07:12:55;;;;;;;7.83;3.07;;;10.30;48.20;;;;;;5093979;28;20190;-82
2024/02/18 07:15:21;;;;;;;10.33;3.27;;;10.20;48.30;;;;;;5093734;28;20664;-82
2024/02/18 07:17:46;;;;;;;8.50;2.80;;;10.30;47.40;;;;;;5093746;28;20202;-82
2024/02/18 07:20:14;;;;;;;9.20;3.03;;;10.30;46.30;;;;;;5094436;28;20657;-83
2024/02/18 07:22:43;;;;;;;8.70;3.37;;;10.30;46.80;;;;;;5093039;28;20211;-83
2024/02/18 07:25:09;;;;;;;7.83;2.50;;;10.30;46.00;;;;;;5093892;28;20332;-83
2024/02/18 07:27:35;;;;;;;7.73;3.40;;;10.20;47.80;;;;;;5112211;28;20167;-88
2024/02/18 07:30:03;;;;;;;10.50;3.13;;;10.40;48.80;;;;;;5094560;28;20175;-84
2024/02/18 07:32:28;;;;;;;9.03;2.90;;;10.40;50.00;;;;;;5092698;28;20259;-84
2024/02/18 07:34:54;;;;;;;7.83;3.00;;;10.30;49.90;;;;;;5095889;28;20278;-83
2024/02/18 07:37:20;;;;;;;6.40;3.00;;;10.30;52.70;;;;;;5098128;28;20201;-83
2024/02/18 07:39:46;;;;;;;7.93;2.80;;;10.20;54.00;;;;;;5096720;28;20896;-82
2024/02/18 07:42:11;;;;;;;6.63;3.13;;;10.10;54.10;;;;;;5097278;28;20254;-83
2024/02/18 07:44:37;;;;;;;11.53;2.90;;;10.10;54.60;;;;;;5097029;28;20530;-83
2024/02/18 07:47:04;;;;;;;8.43;3.10;;;10.20;54.90;;;;;;5096624;28;20535;-85
2024/02/18 07:49:29;;;;;;;7.80;2.80;;;10.10;56.60;;;;;;5097563;28;20167;-83
2024/02/18 07:51:55;;;;;;;11.47;2.83;;;10.20;56.10;;;;;;5097487;28;20183;-83
2024/02/18 07:54:20;;;;;;;8.07;3.23;;;10.20;56.40;;;;;;5097006;28;20167;-83
2024/02/18 07:56:47;;;;;;;6.83;2.97;;;10.10;56.70;;;;;;5097551;28;20182;-81
2024/02/18 07:59:14;;;;;;;6.87;3.10;;;10.10;55.90;;;;;;5096726;28;20218;-82
2024/02/18 08:01:40;;;;;;;7.57;3.57;;;10.10;55.50;;;;;;5096266;28;20657;-82
2024/02/18 08:04:05;;;;;;;7.53;2.80;;;10.20;57.10;;;;;;5097314;28;20200;-83
2024/02/18 08:06:32;;;;;;;7.87;2.73;;;10.10;55.60;;;;;;5096814;28;20179;-82
2024/02/18 08:09:01;;;;;;;6.57;2.97;;;10.20;56.90;;;;;;5096795;28;20659;-82
2024/02/18 08:11:26;;;;;;;6.20;2.97;;;10.20;57.80;;;;;;5097674;28;20210;-82
2024/02/18 08:13:52;;;;;;;9.67;3.70;;;10.40;57.40;;;;;;5096997;28;20547;-82
2024/02/18 08:16:19;;;;;;;12.90;3.27;;;10.20;56.90;;;;;;5095338;28;20625;-81
2024/02/18 08:18:45;;;;;;;6.93;3.17;;;10.10;56.20;;;;;;5114002;28;20206;-81
2024/02/18 08:21:11;;;;;;;6.73;2.67;;;10.20;56.50;;;;;;5096156;28;20262;-82
2024/02/18 08:23:37;;;;;;;9.67;3.40;;;10.20;55.10;;;;;;5096253;28;20262;-83
2024/02/18 08:26:03;;;;;;;9.30;3.40;;;10.20;56.20;;;;;;5096968;28;20663;-83
2024/02/18 08:28:29;;;;;;;5.87;2.83;;;10.30;55.80;;;;;;5096337;28;20642;-83
2024/02/18 08:30:55;;;;;;;7.43;2.87;;;10.20;53.50;;;;;;5095761;28;20175;-82
2024/02/18 08:33:21;;;;;;;8.77;2.87;;;10.40;54.10;;;;;;5095305;28;20580;-82
2024/02/18 08:35:47;;;;;;;8.97;2.87;;;10.30;52.40;;;;;;5096542;28;20175;-81
2024/02/18 08:38:12;;;;;;;9.13;2.97;;;10.40;51.00;;;;;;5112168;27;20237;-82
2024/02/18 08:40:38;;;;;;;8.87;2.37;;;10.60;47.50;;;;;;5115408;27;20183;-82
2024/02/18 08:43:03;;;;;;;5.77;2.33;;;10.60;43.80;;;;;;5116220;27;20174;-83
2024/02/18 08:45:30;;;;;;;9.23;2.50;;;10.50;42.70;;;;;;5116691;27;20531;-84
2024/02/18 08:47:56;;;;;;;11.07;2.70;;;10.60;41.50;;;;;;5117322;27;20181;-82
2024/02/18 08:50:22;;;;;;;10.77;2.43;;;10.60;40.30;;;;;;5135440;27;20177;-83
2024/02/18 08:52:48;;;;;;;9.90;2.57;;;10.50;38.60;;;;;;5134221;27;20169;-83
2024/02/18 08:55:13;;;;;;;7.30;3.10;;;10.60;36.50;;;;;;5115972;27;20257;-83
2024/02/18 08:57:39;;;;;;;6.77;2.50;;;10.60;35.60;;;;;;5114814;27;20170;-81
2024/02/18 09:00:07;;;;;;;8.57;2.70;;;10.70;33.80;;;;;;5116012;27;20641;-83
2024/02/18 09:02:32;;;;;;;7.90;2.80;;;10.60;33.50;;;;;;5116276;27;20185;-82
2024/02/18 09:04:59;;;;;;;12.57;2.60;;;10.70;31.30;;;;;;5116155;27;20174;-83
2024/02/18 09:07:28;;;;;;;8.43;2.73;;;10.80;29.80;;;;;;5125263;27;20213;-83
2024/02/18 09:09:54;;;;;;;9.70;2.73;;;10.90;26.90;;;;;;5095777;28;20262;-83
2024/02/18 09:12:19;;;;;;;14.47;3.17;;;10.80;26.60;;;;;;5095458;28;20616;-83
2024/02/18 09:14:47;;;;;;;8.90;2.40;;;11.00;24.70;;;;;;5096068;28;20167;-82
2024/02/18 09:17:12;;;;;;;10.77;2.83;;;11.00;21.60;;;;;;5113282;28;20190;-83
2024/02/18 09:19:38;;;;;;;7.50;2.23;;;11.00;20.40;;;;;;5114212;28;20635;-85
2024/02/18 09:22:05;;;;;;;6.67;2.17;;;11.00;19.80;;;;;;5095921;28;20266;-85
2024/02/18 09:24:31;;;;;;;9.47;2.40;;;11.10;19.20;;;;;;5095674;28;20627;-85
2024/02/18 09:26:57;;;;;;;6.83;2.23;;;11.10;18.70;;;;;;5095281;28;20167;-83
2024/02/18 09:29:22;;;;;;;6.10;2.20;;;11.30;19.70;;;;;;5094923;28;20171;-84
2024/02/18 09:31:48;;;;;;;7.30;2.83;;;11.20;17.10;;;;;;5114026;28;20628;-83
2024/02/18 09:34:15;;;;;;;9.47;3.33;;;11.30;19.80;;;;;;5095205;28;20176;-82
2024/02/18 09:36:40;;;;;;;8.23;2.40;;;11.20;19.60;;;;;;5093106;28;20646;-83
2024/02/18 09:39:06;;;;;;;5.00;2.17;;;11.20;19.30;;;;;;5095527;28;20208;-83
2024/02/18 09:41:32;;;;;;;6.17;2.30;;;11.30;17.50;;;;;;5087076;28;20173;-83
2024/02/18 09:44:05;;;;;;;6.40;2.60;;;11.30;17.60;;;;;;5080417;28;20179;-82
2024/02/18 09:46:34;;;;;;;6.17;2.57;;;11.40;15.00;;;;;;5079331;28;20750;-83
2024/02/18 09:49:00;;;;;;;6.07;2.20;;;11.40;12.60;;;;;;5074826;28;20179;-82
2024/02/18 09:51:27;;;;;;;6.97;2.63;;;11.40;11.30;;;;;;5093604;28;20186;-81
2024/02/18 09:53:54;;;;;;;5.63;2.40;;;11.30;13.10;;;;;;5081327;28;20179;-83
2024/02/18 09:56:20;;;;;;;7.07;2.40;;;11.50;12.90;;;;;;5080129;28;20635;-87
2024/02/18 09:58:46;;;;;;;7.53;2.57;;;11.40;12.00;;;;;;5084420;28;20207;-84
2024/02/18 10:01:15;;;;;;;6.73;2.50;;;11.50;14.20;;;;;;5088248;28;20501;-85
2024/02/18 10:03:41;;;;;;;6.73;2.33;;;11.40;18.20;;;;;;5095048;28;20228;-83
2024/02/18 10:06:06;;;;;;;8.23;2.77;;;11.30;19.90;;;;;;5092147;28;20179;-85
2024/02/18 10:08:43;;;;;;;8.03;2.57;;;11.30;20.70;;;;;;5093162;28;20271;-81
2024/02/18 10:11:09;;;;;;;10.60;2.93;;;11.40;19.50;;;;;;5092660;28;20170;-79
2024/02/18 10:13:35;;;;;;;8.00;2.70;;;11.40;19.70;;;;;;5090084;28;20619;-80
2024/02/18 10:16:00;;;;;;;6.50;2.23;;;11.50;15.80;;;;;;5093556;28;20212;-80
2024/02/18 10:18:26;;;;;;;5.17;2.43;;;11.50;14.60;;;;;;5093280;28;20246;-81
2024/02/18 10:20:54;;;;;;;6.40;2.00;;;11.50;14.00;;;;;;5094107;28;20255;-86
2024/02/18 10:23:20;;;;;;;6.73;2.27;;;11.50;13.60;;;;;;5091743;28;20183;-82
2024/02/18 10:25:48;;;;;;;8.07;2.63;;;11.40;14.10;;;;;;5112355;28;20171;-81
2024/02/18 10:28:16;;;;;;;5.20;2.37;;;11.40;16.20;;;;;;5092556;28;20549;-82
2024/02/18 10:30:42;;;;;;;4.90;2.37;;;11.40;17.50;;;;;;5093005;28;20649;-83
2024/02/18 10:33:07;;;;;;;8.53;2.40;;;11.40;23.00;;;;;;5092632;28;20265;-83
2024/02/18 10:35:33;;;;;;;5.67;2.30;;;11.40;28.40;;;;;;5093301;28;20634;-83
2024/02/18 10:37:59;;;;;;;7.40;2.40;;;11.30;36.70;;;;;;5092579;28;20199;-82
2024/02/18 10:40:35;;;;;;;6.47;2.80;;;11.20;44.10;;;;;;5109827;28;20178;-81
2024/02/18 10:43:04;;;;;;;4.93;2.23;;;11.00;54.90;;;;;;5092190;28;20174;-81
2024/02/18 10:45:30;;;;;;;9.93;2.73;;;10.90;65.10;;;;;;5091676;28;20645;-85
2024/02/18 10:48:00;;;;;;;8.20;2.67;;;10.80;76.10;;;;;;5091857;28;20191;-81
2024/02/18 10:50:34;;;;;;;16.20;2.93;;;10.80;81.70;;;;;;5092629;28;20159;-82
2024/02/18 10:53:05;;;;;;;5.40;2.33;;;10.80;88.40;;;;;;5093196;28;20287;-84
2024/02/18 10:55:46;;;;;;;5.37;2.60;;;10.80;90.10;;;;;;5112354;28;20650;-82
2024/02/18 10:58:38;;;;;;;5.43;2.50;;;10.60;92.20;;;;;;5092767;28;20321;-83
2024/02/18 11:01:07;;;;;;;6.40;2.50;;;10.60;94.10;;;;;;5093806;28;20247;-82
2024/02/18 11:03:47;;;;;;;6.90;2.97;;;10.80;96.90;;;;;;5093649;28;20205;-85
2024/02/18 11:06:13;;;;;;;6.80;2.67;;;10.60;99.90;;;;;;5093130;28;20198;-84
2024/02/18 11:08:40;;;;;;;6.83;3.03;;;10.50;99.90;;;;;;5092380;28;20615;-83
2024/02/18 11:11:09;;;;;;;8.03;3.03;;;10.50;99.90;;;;;;5095686;28;20174;-81
2024/02/18 11:13:35;;;;;;;6.80;2.37;;;10.50;99.90;;;;;;5096499;28;20171;-81
2024/02/18 11:16:01;;;;;;;6.97;2.60;;;10.30;99.90;;;;;;5098096;28;20171;-83
2024/02/18 11:18:29;;;;;;;6.70;2.47;;;10.30;99.90;;;;;;5096210;28;20238;-84
2024/02/18 11:20:57;;;;;;;6.17;2.80;;;10.50;99.90;;;;;;5096218;28;20171;-84
2024/02/18 11:23:23;;;;;;;7.80;2.70;;;10.40;99.90;;;;;;5095762;28;20178;-84
2024/02/18 11:25:50;;;;;;;6.33;2.53;;;10.30;99.90;;;;;;5096529;28;20167;-85
2024/02/18 11:28:16;;;;;;;9.37;3.03;;;10.30;99.90;;;;;;5097760;28;20175;-82
2024/02/18 11:30:42;;;;;;;7.83;2.83;;;10.40;99.90;;;;;;5115287;28;20293;-84
2024/02/18 11:33:08;;;;;;;5.53;2.90;;;10.30;99.90;;;;;;5094587;28;20653;-84
2024/02/18 11:35:34;;;;;;;10.10;2.77;;;10.40;99.90;;;;;;5095150;28;20251;-82
2024/02/18 11:38:01;;;;;;;7.17;2.87;;;10.60;99.90;;;;;;5113012;28;20741;-84
2024/02/18 11:40:26;;;;;;;7.73;3.13;;;10.50;99.90;;;;;;5114383;28;20221;-84
2024/02/18 11:42:54;;;;;;;4.57;2.77;;;10.50;99.90;;;;;;5096115;28;20582;-81
2024/02/18 11:45:20;;;;;;;5.57;3.37;;;10.50;99.90;;;;;;5096212;28;20261;-84
2024/02/18 11:47:47;;;;;;;7.03;3.00;;;10.60;99.90;;;;;;5112566;28;20450;-82
2024/02/18 11:50:14;;;;;;;6.40;3.27;;;10.60;99.90;;;;;;5112932;28;20186;-82
2024/02/18 11:52:45;;;;;;;5.57;3.20;;;10.60;99.90;;;;;;5095092;28;20174;-82
2024/02/18 11:55:23;;;;;;;5.67;3.37;;;10.60;99.90;;;;;;5097206;28;20296;-84
2024/02/18 11:57:49;;;;;;;5.37;2.93;;;10.60;99.90;;;;;;5096225;28;20179;-87
2024/02/18 12:00:16;;;;;;;5.77;3.03;;;10.60;99.90;;;;;;5094282;28;20289;-80
2024/02/18 12:03:04;;;;;;;4.87;3.10;;;10.60;99.90;;;;;;5106512;28;20186;-81
2024/02/18 12:05:30;;;;;;;5.83;3.30;;;10.60;99.90;;;;;;5112569;28;20174;-84
2024/02/18 12:07:58;;;;;;;6.63;3.10;;;10.70;99.90;;;;;;5098105;28;20183;-86
2024/02/18 12:10:23;;;;;;;6.07;3.00;;;10.60;99.90;;;;;;5096831;28;20653;-84
2024/02/18 12:12:50;;;;;;;4.67;3.00;;;10.60;99.90;;;;;;5094714;28;20206;-83
2024/02/18 12:15:23;;;;;;;7.70;2.83;;;10.60;99.90;;;;;;5093502;28;20163;-82
2024/02/18 12:17:52;;;;;;;4.63;3.30;;;10.70;99.90;;;;;;5112320;28;20215;-82
2024/02/18 12:20:19;;;;;;;5.80;3.40;;;10.70;99.90;;;;;;5094481;28;20174;-84
2024/02/18 12:22:46;;;;;;;6.40;3.00;;;10.60;99.90;;;;;;5096430;28;20554;-84
2024/02/18 12:25:14;;;;;;;6.33;3.10;;;10.70;99.90;;;;;;5076656;28;20635;-82
2024/02/18 12:27:40;;;;;;;4.43;3.13;;;10.60;99.90;;;;;;5114119;28;20171;-84
2024/02/18 12:30:07;;;;;;;4.97;2.60;;;10.70;99.90;;;;;;5095833;28;20170;-82
2024/02/18 12:32:36;;;;;;;4.70;2.50;;;10.60;99.90;;;;;;5095767;28;20539;-83
2024/02/18 12:35:05;;;;;;;5.87;2.80;;;10.70;99.90;;;;;;5093303;28;20179;-83
2024/02/18 12:37:31;;;;;;;4.90;2.70;;;10.70;99.90;;;;;;5076143;28;20167;-84
2024/02/18 12:39:57;;;;;;;6.60;3.20;;;10.60;99.90;;;;;;5094014;28;20214;-89
2024/02/18 12:42:24;;;;;;;4.40;2.60;;;10.90;99.90;;;;;;5078346;28;20175;-86
2024/02/18 12:44:50;;;;;;;4.97;2.60;;;10.80;99.90;;;;;;5075619;28;20677;-86